createdAt,value
2022-09-24T00:01:55.980Z,10.16
2022-09-24T00:04:27.738Z,10.17
2022-09-24T00:06:55.998Z,10.15
2022-09-24T00:09:26.696Z,10.14
2022-09-24T00:12:02.140Z,10.13
2022-09-24T00:14:33.858Z,10.11
2022-09-24T00:17:02.053Z,10.08
2022-09-24T00:19:32.476Z,10.06
2022-09-24T00:22:00.601Z,10.06
2022-09-24T00:24:50.819Z,10.04
2022-09-24T00:27:18.997Z,10.00
2022-09-24T00:29:49.574Z,9.98
2022-09-24T00:32:23.893Z,9.96
2022-09-24T00:34:53.284Z,9.88
2022-09-24T00:37:24.476Z,9.88
2022-09-24T00:39:55.846Z,9.90
2022-09-24T00:42:23.953Z,9.89
2022-09-24T00:44:55.739Z,9.90
2022-09-24T00:47:34.454Z,9.90
2022-09-24T00:50:30.334Z,9.87
2022-09-24T00:54:09.295Z,9.82
2022-09-24T00:56:41.344Z,9.77
2022-09-24T00:59:12.187Z,9.77
2022-09-24T01:01:40.378Z,9.78
2022-09-24T01:04:08.576Z,9.79
2022-09-24T01:06:37.837Z,9.83
2022-09-24T01:09:06.082Z,9.84
2022-09-24T01:12:40.799Z,9.84
2022-09-24T01:15:25.505Z,9.83
2022-09-24T01:18:26.383Z,9.82
2022-09-24T01:21:23.027Z,9.82
2022-09-24T01:24:11.452Z,9.81
2022-09-24T01:27:02.224Z,9.79
2022-09-24T01:29:42.208Z,9.74
2022-09-24T01:32:30.226Z,9.69
2022-09-24T01:35:10.174Z,9.68
2022-09-24T01:37:40.906Z,9.65
2022-09-24T01:40:10.845Z,9.66
2022-09-24T01:42:40.529Z,9.66
2022-09-24T01:45:09.930Z,9.59
2022-09-24T01:47:40.549Z,9.57
2022-09-24T01:50:17.226Z,9.57
2022-09-24T01:52:52.154Z,9.50
2022-09-24T01:55:24.675Z,9.46
2022-09-24T01:58:00.581Z,9.42
2022-09-24T02:00:29.049Z,9.38
2022-09-24T02:03:02.838Z,9.40
2022-09-24T02:05:36.882Z,9.40
2022-09-24T02:08:18.642Z,9.42
2022-09-24T02:11:04.030Z,9.42
2022-09-24T02:13:43.589Z,9.46
2022-09-24T02:16:17.628Z,9.49
2022-09-24T02:18:48.573Z,9.52
2022-09-24T02:21:19.070Z,9.48
2022-09-24T02:23:51.723Z,9.47
2022-09-24T02:26:22.200Z,9.45
2022-09-24T02:28:50.386Z,9.43
2022-09-24T02:35:40.884Z,9.36
2022-09-24T02:38:16.504Z,9.39
2022-09-24T02:40:45.502Z,9.44
2022-09-24T02:43:16.005Z,9.49
2022-09-24T02:45:43.995Z,9.49
2022-09-24T02:48:12.088Z,9.50
2022-09-24T02:50:43.010Z,9.50
2022-09-24T02:53:13.270Z,9.49
2022-09-24T02:55:41.988Z,9.46
2022-09-24T02:58:10.036Z,9.50
2022-09-24T03:00:38.031Z,9.55
2022-09-24T03:03:06.053Z,9.59
2022-09-24T03:05:34.172Z,9.61
2022-09-24T03:08:02.168Z,9.62
2022-09-24T03:10:35.920Z,9.64
2022-09-24T03:13:04.860Z,9.63
2022-09-24T03:15:32.859Z,9.61
2022-09-24T03:18:07.324Z,9.59
2022-09-24T03:20:35.266Z,9.56
2022-09-24T03:23:05.029Z,9.52
2022-09-24T03:25:33.100Z,9.50
2022-09-24T03:28:01.066Z,9.48
2022-09-24T03:30:47.848Z,9.47
2022-09-24T03:33:16.085Z,9.50
2022-09-24T03:35:44.238Z,9.52
2022-09-24T03:38:12.199Z,9.60
2022-09-24T03:40:40.145Z,9.65
2022-09-24T03:43:10.737Z,9.66
2022-09-24T03:45:38.694Z,9.64
2022-09-24T03:48:12.600Z,9.65
2022-09-24T03:50:41.725Z,9.66
2022-09-24T03:53:10.003Z,9.67
2022-09-24T03:55:47.734Z,9.66
2022-09-24T03:58:19.967Z,9.62
2022-09-24T04:00:49.167Z,9.60
2022-09-24T04:03:23.657Z,9.61
2022-09-24T04:05:53.974Z,9.65
2022-09-24T04:08:23.767Z,9.68
2022-09-24T04:10:52.952Z,9.68
2022-09-24T04:13:21.206Z,9.70
2022-09-24T04:15:51.712Z,9.69
2022-09-24T04:18:19.770Z,9.69
2022-09-24T04:20:48.983Z,9.71
2022-09-24T04:23:17.059Z,9.71
2022-09-24T04:25:48.047Z,9.67
2022-09-24T04:28:16.285Z,9.66
2022-09-24T04:30:44.247Z,9.64
2022-09-24T04:33:16.516Z,9.66
2022-09-24T04:35:45.380Z,9.70
2022-09-24T04:38:15.250Z,9.71
2022-09-24T04:40:43.894Z,9.72
2022-09-24T04:43:12.212Z,9.70
2022-09-24T04:45:40.139Z,9.70
2022-09-24T04:48:10.424Z,9.70
2022-09-24T04:50:43.312Z,9.70
2022-09-24T04:53:16.109Z,9.72
2022-09-24T04:55:44.976Z,9.72
2022-09-24T04:58:12.866Z,9.72
2022-09-24T05:00:44.366Z,9.73
2022-09-24T05:03:17.637Z,9.76
2022-09-24T05:05:45.560Z,9.74
2022-09-24T05:08:17.861Z,9.78
2022-09-24T05:10:45.989Z,9.79
2022-09-24T05:13:14.185Z,9.78
2022-09-24T05:15:43.302Z,9.77
2022-09-24T05:18:13.024Z,9.76
2022-09-24T05:20:42.121Z,9.74
2022-09-24T05:23:10.522Z,9.76
2022-09-24T05:26:00.807Z,9.78
2022-09-24T05:28:28.751Z,9.79
2022-09-24T05:30:58.280Z,9.79
2022-09-24T05:33:26.601Z,9.80
2022-09-24T05:35:58.058Z,9.83
2022-09-24T05:38:26.088Z,9.86
2022-09-24T05:40:54.848Z,9.89
2022-09-24T05:43:22.900Z,9.88
2022-09-24T05:48:25.942Z,9.89
2022-09-24T05:50:55.588Z,9.91
2022-09-24T05:53:25.074Z,9.95
2022-09-24T05:55:53.322Z,9.99
2022-09-24T05:58:21.165Z,10.04
2022-09-24T06:00:49.378Z,10.11
2022-09-24T06:03:18.725Z,10.15
2022-09-24T06:05:48.701Z,10.19
2022-09-24T06:08:17.634Z,10.24
2022-09-24T06:10:46.499Z,10.32
2022-09-24T06:13:17.463Z,10.42
2022-09-24T06:15:45.561Z,10.51
2022-09-24T06:18:13.435Z,10.62
2022-09-24T06:20:42.491Z,10.72
2022-09-24T06:23:10.602Z,10.83
2022-09-24T06:25:38.301Z,10.95
2022-09-24T06:28:06.056Z,11.08
2022-09-24T06:30:38.502Z,11.18
2022-09-24T06:33:09.799Z,11.21
2022-09-24T06:35:39.043Z,11.23
2022-09-24T06:38:10.152Z,11.25
2022-09-24T06:40:39.392Z,11.28
2022-09-24T06:43:07.746Z,11.38
2022-09-24T06:45:36.241Z,11.45
2022-09-24T06:48:05.318Z,11.50
2022-09-24T06:50:34.553Z,11.54
2022-09-24T06:53:05.422Z,11.57
2022-09-24T06:55:34.671Z,11.66
2022-09-24T06:58:14.043Z,11.78
2022-09-24T07:00:43.080Z,11.91
2022-09-24T07:03:15.756Z,12.02
2022-09-24T07:05:44.108Z,12.10
2022-09-24T07:08:11.939Z,12.19
2022-09-24T07:10:44.379Z,12.25
2022-09-24T07:13:13.203Z,12.35
2022-09-24T07:15:41.842Z,12.44
2022-09-24T07:18:10.100Z,12.48
2022-09-24T07:20:38.002Z,12.50
2022-09-24T07:23:07.361Z,12.52
2022-09-24T07:25:36.293Z,12.60
2022-09-24T07:28:04.666Z,12.65
2022-09-24T07:30:34.277Z,12.72
2022-09-24T07:33:02.641Z,12.79
2022-09-24T07:35:31.540Z,12.79
2022-09-24T07:38:01.467Z,12.80
2022-09-24T07:40:30.507Z,12.87
2022-09-24T07:42:59.249Z,13.00
2022-09-24T07:45:29.518Z,13.08
2022-09-24T07:48:02.113Z,13.10
2022-09-24T07:50:31.903Z,13.12
2022-09-24T07:53:00.543Z,13.14
2022-09-24T07:55:28.541Z,13.18
2022-09-24T07:57:57.025Z,13.15
2022-09-24T08:00:25.286Z,13.14
2022-09-24T08:02:53.892Z,13.17
2022-09-24T08:05:21.770Z,13.23
2022-09-24T08:07:54.006Z,13.31
2022-09-24T08:10:23.139Z,13.41
2022-09-24T08:12:50.930Z,13.53
2022-09-24T08:15:19.559Z,13.67
2022-09-24T08:17:47.234Z,13.82
2022-09-24T08:20:15.139Z,13.97
2022-09-24T08:22:42.930Z,14.12
2022-09-24T08:25:10.578Z,14.26
2022-09-24T08:27:38.452Z,14.36
2022-09-24T08:30:07.183Z,14.48
2022-09-24T08:32:34.938Z,14.59
2022-09-24T08:35:02.615Z,14.67
2022-09-24T08:37:31.618Z,14.78
2022-09-24T08:39:59.445Z,14.90
2022-09-24T08:42:45.954Z,15.02
2022-09-24T08:45:32.721Z,15.16
2022-09-24T08:48:11.632Z,15.40
2022-09-24T08:50:51.043Z,15.64
2022-09-24T08:53:40.179Z,15.74
2022-09-24T08:56:08.656Z,15.68
2022-09-24T08:59:03.330Z,15.69
2022-09-24T09:01:56.047Z,15.75
2022-09-24T09:04:34.317Z,15.94
2022-09-24T09:07:08.566Z,16.25
2022-09-24T09:10:13.830Z,16.33
2022-09-24T09:12:55.775Z,16.32
2022-09-24T09:15:30.155Z,16.40
2022-09-24T09:18:12.527Z,16.62
2022-09-24T09:20:47.890Z,16.85
2022-09-24T09:23:37.797Z,16.97
2022-09-24T09:26:07.065Z,16.89
2022-09-24T09:28:34.794Z,17.00
2022-09-24T09:31:22.535Z,17.18
2022-09-24T09:33:50.253Z,17.29
2022-09-24T09:36:35.921Z,17.32
2022-09-24T09:39:21.109Z,17.33
2022-09-24T09:41:56.707Z,17.22
2022-09-24T09:44:27.062Z,17.14
2022-09-24T09:47:11.889Z,17.05
2022-09-24T09:49:40.466Z,16.92
2022-09-24T09:52:22.754Z,16.89
2022-09-24T09:54:50.478Z,16.90
2022-09-24T09:57:21.567Z,16.89
2022-09-24T09:59:50.473Z,16.91
2022-09-24T10:02:31.420Z,16.95
2022-09-24T10:05:01.755Z,16.92
2022-09-24T10:07:31.620Z,16.97
2022-09-24T10:10:20.318Z,17.08
2022-09-24T10:12:48.030Z,17.18
2022-09-24T10:15:19.033Z,17.25
2022-09-24T10:22:16.557Z,17.86
2022-09-24T10:24:44.570Z,17.97
2022-09-24T10:27:13.958Z,18.21
2022-09-24T10:30:00.788Z,18.53
2022-09-24T10:32:29.754Z,18.88
2022-09-24T10:35:02.355Z,19.10
2022-09-24T10:37:30.247Z,19.22
2022-09-24T10:40:13.784Z,19.29
2022-09-24T10:42:41.575Z,19.47
2022-09-24T10:45:14.115Z,19.63
2022-09-24T10:47:56.901Z,19.97
2022-09-24T10:50:31.418Z,20.28
2022-09-24T10:53:07.418Z,20.51
2022-09-24T10:55:41.476Z,20.77
2022-09-24T10:58:18.759Z,21.01
2022-09-24T11:00:53.007Z,21.13
2022-09-24T11:03:55.441Z,21.17
2022-09-24T11:06:41.614Z,21.29
2022-09-24T11:09:19.660Z,21.37
2022-09-24T11:12:05.625Z,21.62
2022-09-24T11:14:57.675Z,21.96
2022-09-24T11:17:26.505Z,22.26
2022-09-24T11:19:54.184Z,22.57
2022-09-24T11:22:34.065Z,22.85
2022-09-24T11:25:29.465Z,23.18
2022-09-24T11:28:06.018Z,23.67
2022-09-24T11:31:01.931Z,23.81
2022-09-24T11:33:58.762Z,23.73
2022-09-24T11:36:51.459Z,23.61
2022-09-24T11:39:48.730Z,23.84
2022-09-24T11:42:24.802Z,24.09
2022-09-24T11:45:25.162Z,24.40
2022-09-24T11:48:11.994Z,24.75
2022-09-24T11:50:47.908Z,24.83
2022-09-24T11:53:39.442Z,24.59
2022-09-24T11:56:13.209Z,24.27
2022-09-24T11:58:48.427Z,23.86
2022-09-24T12:01:20.890Z,23.59
2022-09-24T12:04:12.181Z,23.51
2022-09-24T12:06:54.291Z,23.48
2022-09-24T12:09:33.653Z,23.36
2022-09-24T12:12:08.669Z,23.47
2022-09-24T12:15:04.807Z,23.37
2022-09-24T12:17:58.682Z,23.35
2022-09-24T12:20:28.724Z,23.34
2022-09-24T12:23:02.298Z,23.56
2022-09-24T12:25:34.505Z,23.91
2022-09-24T12:28:02.622Z,24.14
2022-09-24T12:30:56.144Z,24.40
2022-09-24T12:33:55.062Z,24.65
2022-09-24T12:36:55.998Z,24.76
2022-09-24T12:39:35.786Z,24.82
2022-09-24T12:42:08.470Z,24.91
2022-09-24T12:44:43.100Z,25.18
2022-09-24T12:47:17.455Z,25.40
2022-09-24T12:49:49.615Z,25.42
2022-09-24T12:52:23.533Z,25.35
2022-09-24T12:54:59.103Z,25.20
2022-09-24T12:57:37.151Z,25.23
2022-09-24T13:00:41.458Z,25.49
2022-09-24T13:03:47.488Z,25.85
2022-09-24T13:06:36.689Z,26.24
2022-09-24T13:09:29.631Z,26.54
2022-09-24T13:12:05.287Z,26.59
2022-09-24T13:14:34.469Z,26.42
2022-09-24T13:17:05.740Z,26.20
2022-09-24T13:19:44.978Z,26.17
2022-09-24T13:22:26.919Z,25.82
2022-09-24T13:25:10.087Z,26.14
2022-09-24T13:27:41.366Z,26.64
2022-09-24T13:30:09.597Z,26.87
2022-09-24T13:32:40.362Z,26.85
2022-09-24T13:35:21.962Z,26.99
2022-09-24T13:38:17.347Z,27.22
2022-09-24T13:40:50.789Z,27.58
2022-09-24T13:43:39.894Z,27.92
2022-09-24T13:46:14.353Z,28.28
2022-09-24T13:48:50.015Z,28.69
2022-09-24T13:51:20.763Z,29.13
2022-09-24T13:54:10.506Z,29.49
2022-09-24T13:56:38.341Z,29.89
2022-09-24T13:59:11.504Z,30.25
2022-09-24T14:01:42.143Z,30.27
2022-09-24T14:04:18.733Z,30.24
2022-09-24T14:06:51.404Z,29.83
2022-09-24T14:09:28.131Z,29.20
2022-09-24T14:11:58.755Z,28.70
2022-09-24T14:14:29.491Z,28.35
2022-09-24T14:17:07.820Z,27.73
2022-09-24T14:19:36.321Z,27.01
2022-09-24T14:22:05.990Z,26.33
2022-09-24T14:24:36.028Z,25.71
2022-09-24T14:27:09.979Z,25.14
2022-09-24T14:29:48.392Z,24.61
2022-09-24T14:32:21.060Z,24.10
2022-09-24T14:34:51.923Z,23.70
2022-09-24T14:37:30.735Z,23.29
2022-09-24T14:40:02.758Z,22.89
2022-09-24T14:42:38.250Z,22.55
2022-09-24T14:45:08.545Z,22.24
2022-09-24T14:47:37.525Z,21.97
2022-09-24T14:50:26.974Z,21.70
2022-09-24T14:52:57.060Z,21.46
2022-09-24T14:55:40.217Z,21.29
2022-09-24T14:58:24.787Z,21.06
2022-09-24T15:00:55.641Z,20.78
2022-09-24T15:03:28.514Z,20.52
2022-09-24T15:06:22.377Z,20.32
2022-09-24T15:08:55.277Z,20.06
2022-09-24T15:11:27.876Z,19.86
2022-09-24T15:13:59.728Z,19.72
2022-09-24T15:16:33.683Z,19.63
2022-09-24T15:19:15.535Z,19.52
2022-09-24T15:21:44.319Z,19.42
2022-09-24T15:24:12.164Z,19.32
2022-09-24T15:26:42.856Z,19.25
2022-09-24T15:29:18.428Z,19.22
2022-09-24T15:31:46.513Z,19.43
2022-09-24T15:34:17.801Z,19.95
2022-09-24T15:36:54.146Z,20.24
2022-09-24T15:39:23.673Z,21.90
2022-09-24T15:41:51.378Z,23.08
2022-09-24T15:44:23.098Z,22.72
2022-09-24T15:46:51.823Z,22.25
2022-09-24T15:49:22.192Z,21.93
2022-09-24T15:51:56.106Z,21.66
2022-09-24T15:54:24.962Z,21.43
2022-09-24T15:56:53.163Z,21.96
2022-09-24T15:59:22.588Z,23.65
2022-09-24T16:01:52.921Z,25.00
2022-09-24T16:04:23.239Z,26.06
2022-09-24T16:06:51.098Z,26.85
2022-09-24T16:09:18.809Z,27.55
2022-09-24T16:11:49.093Z,28.08
2022-09-24T16:14:16.834Z,28.44
2022-09-24T16:16:44.511Z,28.68
2022-09-24T16:19:12.639Z,28.66
2022-09-24T16:21:40.771Z,27.59
2022-09-24T16:24:11.040Z,26.42
2022-09-24T16:26:39.068Z,25.31
2022-09-24T16:29:06.994Z,24.33
2022-09-24T16:31:34.914Z,23.50
2022-09-24T16:34:02.584Z,22.72
2022-09-24T16:36:30.270Z,22.00
2022-09-24T16:38:58.762Z,21.37
2022-09-24T16:41:26.595Z,20.83
2022-09-24T16:43:58.614Z,20.37
2022-09-24T16:46:26.481Z,19.95
2022-09-24T16:48:54.365Z,19.56
2022-09-24T16:51:22.291Z,19.19
2022-09-24T16:53:56.550Z,18.86
2022-09-24T16:56:24.981Z,18.54
2022-09-24T16:58:52.891Z,18.24
2022-09-24T17:01:22.224Z,17.94
2022-09-24T17:03:54.026Z,17.67
2022-09-24T17:06:30.186Z,17.39
2022-09-24T17:09:16.723Z,17.07
2022-09-24T17:11:46.864Z,16.71
2022-09-24T17:14:15.719Z,16.46
2022-09-24T17:16:44.490Z,16.25
2022-09-24T17:19:12.812Z,16.08
2022-09-24T17:21:43.204Z,15.92
2022-09-24T17:24:10.949Z,15.72
2022-09-24T17:26:39.637Z,15.55
2022-09-24T17:29:07.405Z,15.38
2022-09-24T17:31:35.159Z,15.26
2022-09-24T17:34:05.741Z,15.15
2022-09-24T17:36:36.978Z,15.02
2022-09-24T17:39:05.713Z,14.87
2022-09-24T17:41:34.696Z,14.69
2022-09-24T17:44:02.562Z,14.57
2022-09-24T17:46:32.062Z,14.44
2022-09-24T17:49:00.599Z,14.34
2022-09-24T17:51:33.657Z,14.27
2022-09-24T17:54:03.764Z,14.19
2022-09-24T17:56:33.225Z,14.11
2022-09-24T17:59:01.031Z,14.04
2022-09-24T18:01:33.582Z,13.98
2022-09-24T18:04:01.715Z,13.90
2022-09-24T18:06:33.205Z,13.83
2022-09-24T18:09:02.017Z,13.76
2022-09-24T18:11:38.237Z,13.69
2022-09-24T18:14:06.033Z,13.65
2022-09-24T18:16:34.247Z,13.65
2022-09-24T18:19:03.066Z,13.62
2022-09-24T18:21:31.440Z,13.56
2022-09-24T18:24:00.810Z,13.54
2022-09-24T18:26:37.616Z,13.50
2022-09-24T18:29:13.703Z,13.46
2022-09-24T18:31:42.428Z,13.41
2022-09-24T18:34:13.310Z,13.35
2022-09-24T18:36:42.513Z,13.23
2022-09-24T18:39:13.376Z,13.16
2022-09-24T18:41:42.803Z,13.11
2022-09-24T18:44:12.037Z,13.09
2022-09-24T18:46:40.014Z,13.05
2022-09-24T18:49:08.442Z,13.00
2022-09-24T18:51:37.778Z,12.95
2022-09-24T18:54:08.452Z,12.83
2022-09-24T18:56:36.558Z,12.73
2022-09-24T18:59:14.102Z,12.64
2022-09-24T19:01:43.300Z,12.54
2022-09-24T19:04:12.470Z,12.47
2022-09-24T19:06:43.339Z,12.42
2022-09-24T19:09:13.551Z,12.39
2022-09-24T19:11:41.981Z,12.35
2022-09-24T19:14:12.139Z,12.31
2022-09-24T19:16:40.253Z,12.29
2022-09-24T19:19:09.749Z,12.26
2022-09-24T19:21:38.679Z,12.24
2022-09-24T19:24:07.281Z,12.18
2022-09-24T19:26:36.226Z,12.12
2022-09-24T19:29:05.011Z,12.07
2022-09-24T19:31:36.592Z,12.03
2022-09-24T19:34:06.296Z,11.96
2022-09-24T19:36:45.700Z,11.89
2022-09-24T19:39:16.558Z,11.84
2022-09-24T19:41:45.509Z,11.83
2022-09-24T19:44:16.517Z,11.81
2022-09-24T19:46:44.914Z,11.79
2022-09-24T19:49:13.320Z,11.76
2022-09-24T19:51:41.413Z,11.75
2022-09-24T19:54:10.613Z,11.74
2022-09-24T19:56:41.162Z,11.72
2022-09-24T19:59:13.808Z,11.72
2022-09-24T20:01:42.454Z,11.71
2022-09-24T20:04:12.317Z,11.67
2022-09-24T20:06:43.241Z,11.65
2022-09-24T20:09:11.946Z,11.64
2022-09-24T20:11:41.162Z,11.65
2022-09-24T20:14:11.561Z,11.61
2022-09-24T20:16:42.721Z,11.54
2022-09-24T20:19:16.452Z,11.47
2022-09-24T20:21:46.355Z,11.45
2022-09-24T20:24:16.395Z,11.43
2022-09-24T20:27:03.187Z,11.40
2022-09-24T20:29:31.032Z,11.33
2022-09-24T20:31:58.876Z,11.28
2022-09-24T20:34:34.053Z,11.27
2022-09-24T20:37:05.812Z,11.21
2022-09-24T20:39:36.116Z,11.16
2022-09-24T20:42:06.316Z,11.15
2022-09-24T20:44:36.000Z,11.16
2022-09-24T20:47:03.810Z,11.15
2022-09-24T20:49:33.372Z,11.12
2022-09-24T20:52:03.137Z,11.05
2022-09-24T20:54:31.367Z,11.02
2022-09-24T20:56:59.554Z,11.02
2022-09-24T20:59:27.621Z,11.03
2022-09-24T21:01:55.866Z,11.04
2022-09-24T21:04:24.204Z,11.01
2022-09-24T21:06:52.337Z,11.00
2022-09-24T21:09:20.203Z,10.98
2022-09-24T21:11:50.260Z,10.97
2022-09-24T21:14:18.564Z,10.93
2022-09-24T21:16:47.442Z,10.90
2022-09-24T21:19:15.800Z,10.89
2022-09-24T21:21:44.012Z,10.87
2022-09-24T21:24:14.301Z,10.82
2022-09-24T21:26:42.683Z,10.77
2022-09-24T21:29:18.662Z,10.76
2022-09-24T21:31:47.708Z,10.78
2022-09-24T21:34:17.824Z,10.76
2022-09-24T21:36:46.019Z,10.76
2022-09-24T21:39:24.627Z,10.76
2022-09-24T21:41:55.416Z,10.81
2022-09-24T21:44:23.526Z,10.85
2022-09-24T21:46:52.842Z,10.91
2022-09-24T21:49:21.007Z,10.91
2022-09-24T21:51:49.181Z,10.91
2022-09-24T21:54:18.082Z,10.91
2022-09-24T21:56:46.574Z,10.89
2022-09-24T21:59:53.615Z,10.82
2022-09-24T22:02:21.508Z,10.77
2022-09-24T22:04:49.497Z,10.75
2022-09-24T22:07:18.221Z,10.74
2022-09-24T22:09:46.487Z,10.72
2022-09-24T22:12:14.340Z,10.73
2022-09-24T22:14:42.722Z,10.76
2022-09-24T22:17:11.065Z,10.79
2022-09-24T22:19:39.130Z,10.83
2022-09-24T22:22:07.116Z,10.88
2022-09-24T22:24:35.031Z,10.92
2022-09-24T22:27:02.918Z,10.94
2022-09-24T22:29:33.319Z,10.94
2022-09-24T22:32:01.289Z,10.96
2022-09-24T22:34:48.098Z,10.95
2022-09-24T22:37:15.879Z,10.93
2022-09-24T22:39:43.624Z,10.90
2022-09-24T22:42:14.471Z,10.89
2022-09-24T22:44:42.242Z,10.85
2022-09-24T22:47:10.011Z,10.80
2022-09-24T22:49:38.097Z,10.77
2022-09-24T22:52:05.900Z,10.78
2022-09-24T22:54:33.695Z,10.78
2022-09-24T22:57:01.942Z,10.69
2022-09-24T22:59:29.958Z,10.57
2022-09-24T23:01:57.916Z,10.47
2022-09-24T23:04:25.880Z,10.42
2022-09-24T23:06:53.959Z,10.38
2022-09-24T23:09:22.137Z,10.35
2022-09-24T23:11:50.182Z,10.31
2022-09-24T23:14:18.262Z,10.28
2022-09-24T23:16:46.853Z,10.25
2022-09-24T23:19:18.525Z,10.25
2022-09-24T23:21:47.339Z,10.28
2022-09-24T23:24:17.596Z,10.34
2022-09-24T23:26:46.029Z,10.37
2022-09-24T23:29:14.813Z,10.36
2022-09-24T23:31:42.928Z,10.35
2022-09-24T23:34:14.162Z,10.35
2022-09-24T23:36:46.293Z,10.33
2022-09-24T23:39:14.963Z,10.34
2022-09-24T23:41:43.435Z,10.35
2022-09-24T23:44:11.456Z,10.34
2022-09-24T23:46:40.338Z,10.36
2022-09-24T23:49:08.205Z,10.38
2022-09-24T23:51:36.169Z,10.41
2022-09-24T23:54:04.554Z,10.44
2022-09-24T23:56:32.909Z,10.46
2022-09-24T23:59:00.956Z,10.44
